sensor_id;sensor_type;location;lat;lon;timestamp;P1;durP1;ratioP1;P2;durP2;ratioP2
18887;SDS011;9576;47.792;9.628;2023-08-24T00:00:49;13.60;;;6.85;;
18887;SDS011;9576;47.792;9.628;2023-08-24T00:03:51;16.05;;;7.13;;
18887;SDS011;9576;47.792;9.628;2023-08-24T00:06:53;10.32;;;7.30;;
18887;SDS011;9576;47.792;9.628;2023-08-24T00:09:55;17.48;;;7.50;;
18887;SDS011;9576;47.792;9.628;2023-08-24T00:12:57;17.85;;;8.02;;
18887;SDS011;9576;47.792;9.628;2023-08-24T00:16:00;16.38;;;7.07;;
18887;SDS011;9576;47.792;9.628;2023-08-24T00:19:02;10.00;;;7.35;;
18887;SDS011;9576;47.792;9.628;2023-08-24T00:22:04;12.55;;;7.68;;
18887;SDS011;9576;47.792;9.628;2023-08-24T00:25:06;11.23;;;7.22;;
18887;SDS011;9576;47.792;9.628;2023-08-24T00:28:09;10.52;;;7.00;;
18887;SDS011;9576;47.792;9.628;2023-08-24T00:31:12;11.23;;;6.10;;
18887;SDS011;9576;47.792;9.628;2023-08-24T00:34:16;17.70;;;6.90;;
18887;SDS011;9576;47.792;9.628;2023-08-24T00:37:18;15.93;;;7.55;;
18887;SDS011;9576;47.792;9.628;2023-08-24T00:40:20;15.02;;;8.10;;
18887;SDS011;9576;47.792;9.628;2023-08-24T00:43:22;11.43;;;7.10;;
18887;SDS011;9576;47.792;9.628;2023-08-24T00:46:26;10.93;;;6.88;;
18887;SDS011;9576;47.792;9.628;2023-08-24T00:49:28;16.65;;;7.28;;
18887;SDS011;9576;47.792;9.628;2023-08-24T00:52:31;13.40;;;7.65;;
18887;SDS011;9576;47.792;9.628;2023-08-24T00:55:33;15.95;;;6.50;;
18887;SDS011;9576;47.792;9.628;2023-08-24T00:58:35;10.52;;;7.25;;
18887;SDS011;9576;47.792;9.628;2023-08-24T01:01:40;11.88;;;7.07;;
18887;SDS011;9576;47.792;9.628;2023-08-24T01:04:45;13.23;;;6.82;;
18887;SDS011;9576;47.792;9.628;2023-08-24T01:07:48;18.40;;;6.55;;
18887;SDS011;9576;47.792;9.628;2023-08-24T01:10:52;13.10;;;7.40;;
18887;SDS011;9576;47.792;9.628;2023-08-24T01:14:04;17.85;;;6.70;;
18887;SDS011;9576;47.792;9.628;2023-08-24T01:17:18;17.55;;;7.38;;
18887;SDS011;9576;47.792;9.628;2023-08-24T01:20:24;9.05;;;5.80;;
18887;SDS011;9576;47.792;9.628;2023-08-24T01:23:28;7.85;;;6.05;;
18887;SDS011;9576;47.792;9.628;2023-08-24T01:26:38;18.33;;;7.00;;
18887;SDS011;9576;47.792;9.628;2023-08-24T01:32:43;20.77;;;7.00;;
18887;SDS011;9576;47.792;9.628;2023-08-24T01:35:45;8.43;;;6.70;;
18887;SDS011;9576;47.792;9.628;2023-08-24T01:38:49;16.85;;;6.47;;
18887;SDS011;9576;47.792;9.628;2023-08-24T01:42:02;13.13;;;6.35;;
18887;SDS011;9576;47.792;9.628;2023-08-24T01:45:06;11.63;;;6.28;;
18887;SDS011;9576;47.792;9.628;2023-08-24T01:48:11;14.32;;;6.65;;
18887;SDS011;9576;47.792;9.628;2023-08-24T01:51:15;13.80;;;6.75;;
18887;SDS011;9576;47.792;9.628;2023-08-24T01:54:17;10.38;;;6.72;;
18887;SDS011;9576;47.792;9.628;2023-08-24T01:57:20;24.30;;;6.80;;
18887;SDS011;9576;47.792;9.628;2023-08-24T02:00:22;14.80;;;6.97;;
18887;SDS011;9576;47.792;9.628;2023-08-24T02:03:24;13.63;;;6.90;;
18887;SDS011;9576;47.792;9.628;2023-08-24T02:06:26;15.73;;;7.30;;
18887;SDS011;9576;47.792;9.628;2023-08-24T02:09:28;16.50;;;6.95;;
18887;SDS011;9576;47.792;9.628;2023-08-24T02:12:32;11.95;;;6.47;;
18887;SDS011;9576;47.792;9.628;2023-08-24T02:15:34;10.25;;;5.90;;
18887;SDS011;9576;47.792;9.628;2023-08-24T02:18:36;16.40;;;7.63;;
18887;SDS011;9576;47.792;9.628;2023-08-24T02:21:38;9.73;;;6.82;;
18887;SDS011;9576;47.792;9.628;2023-08-24T02:24:40;12.07;;;6.78;;
18887;SDS011;9576;47.792;9.628;2023-08-24T02:27:43;14.80;;;7.28;;
18887;SDS011;9576;47.792;9.628;2023-08-24T02:30:45;13.48;;;6.30;;
18887;SDS011;9576;47.792;9.628;2023-08-24T02:33:47;11.77;;;7.22;;
18887;SDS011;9576;47.792;9.628;2023-08-24T02:36:49;11.45;;;6.55;;
18887;SDS011;9576;47.792;9.628;2023-08-24T02:39:51;24.02;;;7.25;;
18887;SDS011;9576;47.792;9.628;2023-08-24T02:42:54;10.48;;;6.47;;
18887;SDS011;9576;47.792;9.628;2023-08-24T02:45:59;10.18;;;6.25;;
18887;SDS011;9576;47.792;9.628;2023-08-24T02:49:03;10.07;;;5.93;;
18887;SDS011;9576;47.792;9.628;2023-08-24T02:52:05;12.32;;;6.90;;
18887;SDS011;9576;47.792;9.628;2023-08-24T02:55:07;11.02;;;6.97;;
18887;SDS011;9576;47.792;9.628;2023-08-24T02:58:11;9.93;;;6.57;;
18887;SDS011;9576;47.792;9.628;2023-08-24T03:01:13;21.00;;;6.63;;
18887;SDS011;9576;47.792;9.628;2023-08-24T03:04:15;13.80;;;6.93;;
18887;SDS011;9576;47.792;9.628;2023-08-24T03:07:17;11.90;;;6.05;;
18887;SDS011;9576;47.792;9.628;2023-08-24T03:10:19;9.88;;;6.30;;
18887;SDS011;9576;47.792;9.628;2023-08-24T03:13:22;21.90;;;6.97;;
18887;SDS011;9576;47.792;9.628;2023-08-24T03:16:24;10.05;;;6.25;;
18887;SDS011;9576;47.792;9.628;2023-08-24T03:19:27;20.10;;;7.53;;
18887;SDS011;9576;47.792;9.628;2023-08-24T03:22:29;11.75;;;7.55;;
18887;SDS011;9576;47.792;9.628;2023-08-24T03:25:34;11.05;;;7.53;;
18887;SDS011;9576;47.792;9.628;2023-08-24T03:28:39;10.07;;;6.95;;
18887;SDS011;9576;47.792;9.628;2023-08-24T03:31:41;13.52;;;8.07;;
18887;SDS011;9576;47.792;9.628;2023-08-24T03:34:43;12.35;;;7.60;;
18887;SDS011;9576;47.792;9.628;2023-08-24T03:37:45;14.57;;;7.47;;
18887;SDS011;9576;47.792;9.628;2023-08-24T03:40:47;18.75;;;8.35;;
18887;SDS011;9576;47.792;9.628;2023-08-24T03:43:50;14.23;;;7.60;;
18887;SDS011;9576;47.792;9.628;2023-08-24T03:46:52;13.95;;;7.20;;
18887;SDS011;9576;47.792;9.628;2023-08-24T03:49:54;26.40;;;7.68;;
18887;SDS011;9576;47.792;9.628;2023-08-24T03:52:56;16.38;;;7.88;;
18887;SDS011;9576;47.792;9.628;2023-08-24T03:55:58;15.13;;;8.45;;
18887;SDS011;9576;47.792;9.628;2023-08-24T03:59:01;22.05;;;7.93;;
18887;SDS011;9576;47.792;9.628;2023-08-24T04:02:03;10.90;;;7.10;;
18887;SDS011;9576;47.792;9.628;2023-08-24T04:05:06;13.43;;;7.57;;
18887;SDS011;9576;47.792;9.628;2023-08-24T04:08:08;18.55;;;7.80;;
18887;SDS011;9576;47.792;9.628;2023-08-24T04:11:10;15.85;;;7.25;;
18887;SDS011;9576;47.792;9.628;2023-08-24T04:14:13;13.07;;;7.28;;
18887;SDS011;9576;47.792;9.628;2023-08-24T04:17:15;10.00;;;8.05;;
18887;SDS011;9576;47.792;9.628;2023-08-24T04:20:17;31.70;;;8.23;;
18887;SDS011;9576;47.792;9.628;2023-08-24T04:23:23;14.68;;;8.07;;
18887;SDS011;9576;47.792;9.628;2023-08-24T04:26:26;18.00;;;8.75;;
18887;SDS011;9576;47.792;9.628;2023-08-24T04:29:29;13.10;;;7.85;;
18887;SDS011;9576;47.792;9.628;2023-08-24T04:32:31;20.25;;;8.63;;
18887;SDS011;9576;47.792;9.628;2023-08-24T04:35:34;14.80;;;7.32;;
18887;SDS011;9576;47.792;9.628;2023-08-24T04:38:36;16.30;;;7.32;;
18887;SDS011;9576;47.792;9.628;2023-08-24T04:41:38;27.60;;;7.95;;
18887;SDS011;9576;47.792;9.628;2023-08-24T04:44:42;15.43;;;8.65;;
18887;SDS011;9576;47.792;9.628;2023-08-24T04:47:44;19.63;;;9.10;;
18887;SDS011;9576;47.792;9.628;2023-08-24T04:50:46;15.18;;;8.40;;
18887;SDS011;9576;47.792;9.628;2023-08-24T04:53:49;12.75;;;8.02;;
18887;SDS011;9576;47.792;9.628;2023-08-24T04:56:51;16.52;;;7.97;;
18887;SDS011;9576;47.792;9.628;2023-08-24T04:59:54;14.13;;;8.80;;
18887;SDS011;9576;47.792;9.628;2023-08-24T05:02:56;14.95;;;8.60;;
18887;SDS011;9576;47.792;9.628;2023-08-24T05:05:58;23.67;;;7.75;;
18887;SDS011;9576;47.792;9.628;2023-08-24T05:09:00;17.23;;;8.50;;
18887;SDS011;9576;47.792;9.628;2023-08-24T05:12:02;11.40;;;8.23;;
18887;SDS011;9576;47.792;9.628;2023-08-24T05:15:06;17.10;;;8.70;;
18887;SDS011;9576;47.792;9.628;2023-08-24T05:18:09;15.82;;;9.07;;
18887;SDS011;9576;47.792;9.628;2023-08-24T05:21:10;13.88;;;7.65;;
18887;SDS011;9576;47.792;9.628;2023-08-24T05:24:12;16.27;;;8.95;;
18887;SDS011;9576;47.792;9.628;2023-08-24T05:27:14;15.88;;;7.10;;
18887;SDS011;9576;47.792;9.628;2023-08-24T05:30:18;13.38;;;8.48;;
18887;SDS011;9576;47.792;9.628;2023-08-24T05:33:20;15.07;;;7.97;;
18887;SDS011;9576;47.792;9.628;2023-08-24T05:36:23;11.23;;;8.32;;
18887;SDS011;9576;47.792;9.628;2023-08-24T05:39:25;18.65;;;8.55;;
18887;SDS011;9576;47.792;9.628;2023-08-24T05:42:27;18.73;;;9.52;;
18887;SDS011;9576;47.792;9.628;2023-08-24T05:45:31;14.70;;;8.93;;
18887;SDS011;9576;47.792;9.628;2023-08-24T05:48:32;16.27;;;7.88;;
18887;SDS011;9576;47.792;9.628;2023-08-24T05:51:34;15.52;;;8.35;;
18887;SDS011;9576;47.792;9.628;2023-08-24T05:54:37;14.23;;;8.27;;
18887;SDS011;9576;47.792;9.628;2023-08-24T05:57:39;16.25;;;8.20;;
18887;SDS011;9576;47.792;9.628;2023-08-24T06:00:42;11.57;;;8.38;;
18887;SDS011;9576;47.792;9.628;2023-08-24T06:03:44;16.20;;;8.18;;
18887;SDS011;9576;47.792;9.628;2023-08-24T06:06:46;16.17;;;9.20;;
18887;SDS011;9576;47.792;9.628;2023-08-24T06:09:48;12.02;;;8.25;;
18887;SDS011;9576;47.792;9.628;2023-08-24T06:12:50;18.92;;;8.80;;
18887;SDS011;9576;47.792;9.628;2023-08-24T06:15:53;15.00;;;8.57;;
18887;SDS011;9576;47.792;9.628;2023-08-24T06:18:55;16.77;;;9.32;;
18887;SDS011;9576;47.792;9.628;2023-08-24T06:21:57;28.35;;;9.27;;
18887;SDS011;9576;47.792;9.628;2023-08-24T06:24:59;21.13;;;9.27;;
18887;SDS011;9576;47.792;9.628;2023-08-24T06:28:01;14.88;;;8.82;;
18887;SDS011;9576;47.792;9.628;2023-08-24T06:31:05;23.02;;;9.57;;
18887;SDS011;9576;47.792;9.628;2023-08-24T06:34:08;15.73;;;8.93;;
18887;SDS011;9576;47.792;9.628;2023-08-24T06:37:10;16.05;;;8.73;;
18887;SDS011;9576;47.792;9.628;2023-08-24T06:40:12;16.33;;;9.13;;
18887;SDS011;9576;47.792;9.628;2023-08-24T06:43:14;15.32;;;9.23;;
18887;SDS011;9576;47.792;9.628;2023-08-24T06:46:17;22.73;;;9.68;;
18887;SDS011;9576;47.792;9.628;2023-08-24T06:49:19;28.95;;;9.65;;
18887;SDS011;9576;47.792;9.628;2023-08-24T06:52:21;20.70;;;8.50;;
18887;SDS011;9576;47.792;9.628;2023-08-24T06:55:23;28.40;;;10.18;;
18887;SDS011;9576;47.792;9.628;2023-08-24T06:58:25;19.08;;;9.27;;
18887;SDS011;9576;47.792;9.628;2023-08-24T07:01:28;16.38;;;9.45;;
18887;SDS011;9576;47.792;9.628;2023-08-24T07:04:31;24.50;;;9.68;;
18887;SDS011;9576;47.792;9.628;2023-08-24T07:07:34;17.15;;;9.52;;
18887;SDS011;9576;47.792;9.628;2023-08-24T07:10:36;20.33;;;9.32;;
18887;SDS011;9576;47.792;9.628;2023-08-24T07:13:38;18.73;;;9.77;;
18887;SDS011;9576;47.792;9.628;2023-08-24T07:16:41;21.05;;;10.70;;
18887;SDS011;9576;47.792;9.628;2023-08-24T07:19:43;14.48;;;9.27;;
18887;SDS011;9576;47.792;9.628;2023-08-24T07:22:45;21.30;;;9.82;;
18887;SDS011;9576;47.792;9.628;2023-08-24T07:25:47;18.88;;;9.60;;
18887;SDS011;9576;47.792;9.628;2023-08-24T07:28:49;22.67;;;9.13;;
18887;SDS011;9576;47.792;9.628;2023-08-24T07:31:52;17.50;;;8.98;;
18887;SDS011;9576;47.792;9.628;2023-08-24T07:34:54;13.48;;;9.00;;
18887;SDS011;9576;47.792;9.628;2023-08-24T07:37:57;22.67;;;9.13;;
18887;SDS011;9576;47.792;9.628;2023-08-24T07:40:59;24.70;;;9.13;;
18887;SDS011;9576;47.792;9.628;2023-08-24T07:44:01;17.20;;;9.20;;
18887;SDS011;9576;47.792;9.628;2023-08-24T07:47:04;13.85;;;8.40;;
18887;SDS011;9576;47.792;9.628;2023-08-24T07:50:07;17.02;;;9.27;;
18887;SDS011;9576;47.792;9.628;2023-08-24T07:53:09;14.30;;;9.00;;
18887;SDS011;9576;47.792;9.628;2023-08-24T07:56:11;25.80;;;8.93;;
18887;SDS011;9576;47.792;9.628;2023-08-24T07:59:13;21.27;;;8.27;;
18887;SDS011;9576;47.792;9.628;2023-08-24T08:02:16;16.50;;;9.25;;
18887;SDS011;9576;47.792;9.628;2023-08-24T08:05:18;22.60;;;8.30;;
18887;SDS011;9576;47.792;9.628;2023-08-24T08:08:20;18.92;;;8.80;;
18887;SDS011;9576;47.792;9.628;2023-08-24T08:11:22;17.80;;;8.48;;
18887;SDS011;9576;47.792;9.628;2023-08-24T08:14:25;24.05;;;8.98;;
18887;SDS011;9576;47.792;9.628;2023-08-24T08:17:29;26.85;;;8.93;;
18887;SDS011;9576;47.792;9.628;2023-08-24T08:20:31;23.17;;;8.93;;
18887;SDS011;9576;47.792;9.628;2023-08-24T08:23:33;20.40;;;8.82;;
18887;SDS011;9576;47.792;9.628;2023-08-24T08:26:35;22.27;;;9.73;;
18887;SDS011;9576;47.792;9.628;2023-08-24T08:29:37;22.90;;;7.85;;
18887;SDS011;9576;47.792;9.628;2023-08-24T08:32:40;17.63;;;9.30;;
18887;SDS011;9576;47.792;9.628;2023-08-24T08:35:42;28.75;;;9.75;;
18887;SDS011;9576;47.792;9.628;2023-08-24T08:38:44;17.60;;;9.32;;
18887;SDS011;9576;47.792;9.628;2023-08-24T08:41:46;29.60;;;8.27;;
18887;SDS011;9576;47.792;9.628;2023-08-24T08:44:49;28.65;;;8.52;;
18887;SDS011;9576;47.792;9.628;2023-08-24T08:47:56;28.27;;;9.27;;
18887;SDS011;9576;47.792;9.628;2023-08-24T08:51:00;13.10;;;8.20;;
18887;SDS011;9576;47.792;9.628;2023-08-24T08:54:02;19.45;;;7.50;;
18887;SDS011;9576;47.792;9.628;2023-08-24T08:57:05;26.83;;;8.55;;
18887;SDS011;9576;47.792;9.628;2023-08-24T09:00:08;23.50;;;8.15;;
18887;SDS011;9576;47.792;9.628;2023-08-24T09:03:14;20.80;;;7.78;;
18887;SDS011;9576;47.792;9.628;2023-08-24T09:06:19;21.98;;;7.78;;
18887;SDS011;9576;47.792;9.628;2023-08-24T09:09:22;15.90;;;8.05;;
18887;SDS011;9576;47.792;9.628;2023-08-24T09:12:25;23.90;;;8.35;;
18887;SDS011;9576;47.792;9.628;2023-08-24T09:15:27;18.73;;;7.72;;
18887;SDS011;9576;47.792;9.628;2023-08-24T09:18:37;14.57;;;7.53;;
18887;SDS011;9576;47.792;9.628;2023-08-24T09:21:40;17.17;;;6.78;;
18887;SDS011;9576;47.792;9.628;2023-08-24T09:24:42;20.33;;;8.00;;
18887;SDS011;9576;47.792;9.628;2023-08-24T09:27:44;26.30;;;7.57;;
18887;SDS011;9576;47.792;9.628;2023-08-24T09:30:46;25.88;;;7.53;;
18887;SDS011;9576;47.792;9.628;2023-08-24T09:34:00;16.40;;;6.13;;
18887;SDS011;9576;47.792;9.628;2023-08-24T09:37:03;21.63;;;6.60;;
18887;SDS011;9576;47.792;9.628;2023-08-24T09:40:06;22.48;;;6.93;;
18887;SDS011;9576;47.792;9.628;2023-08-24T09:43:12;25.92;;;6.97;;
18887;SDS011;9576;47.792;9.628;2023-08-24T09:46:14;26.38;;;7.40;;
18887;SDS011;9576;47.792;9.628;2023-08-24T09:49:22;24.33;;;7.55;;
18887;SDS011;9576;47.792;9.628;2023-08-24T09:52:26;26.17;;;6.60;;
18887;SDS011;9576;47.792;9.628;2023-08-24T09:55:32;37.63;;;7.10;;
18887;SDS011;9576;47.792;9.628;2023-08-24T09:58:37;22.73;;;7.25;;
18887;SDS011;9576;47.792;9.628;2023-08-24T10:01:43;33.97;;;6.20;;
18887;SDS011;9576;47.792;9.628;2023-08-24T10:04:48;20.40;;;6.63;;
18887;SDS011;9576;47.792;9.628;2023-08-24T10:07:53;22.90;;;6.65;;
18887;SDS011;9576;47.792;9.628;2023-08-24T10:10:57;29.55;;;7.10;;
18887;SDS011;9576;47.792;9.628;2023-08-24T10:14:00;25.13;;;6.55;;
18887;SDS011;9576;47.792;9.628;2023-08-24T10:17:09;23.88;;;6.32;;
18887;SDS011;9576;47.792;9.628;2023-08-24T10:20:13;17.40;;;7.15;;
18887;SDS011;9576;47.792;9.628;2023-08-24T10:26:20;23.55;;;7.50;;
18887;SDS011;9576;47.792;9.628;2023-08-24T10:29:23;25.92;;;7.00;;
18887;SDS011;9576;47.792;9.628;2023-08-24T10:32:29;24.27;;;7.60;;
18887;SDS011;9576;47.792;9.628;2023-08-24T10:35:33;32.47;;;7.13;;
18887;SDS011;9576;47.792;9.628;2023-08-24T10:38:35;35.00;;;6.43;;
18887;SDS011;9576;47.792;9.628;2023-08-24T10:41:51;27.48;;;7.63;;
18887;SDS011;9576;47.792;9.628;2023-08-24T10:44:53;29.77;;;6.32;;
18887;SDS011;9576;47.792;9.628;2023-08-24T10:47:55;27.33;;;7.07;;
18887;SDS011;9576;47.792;9.628;2023-08-24T10:51:17;26.38;;;6.72;;
18887;SDS011;9576;47.792;9.628;2023-08-24T10:54:29;30.87;;;6.87;;
18887;SDS011;9576;47.792;9.628;2023-08-24T10:57:35;24.40;;;6.88;;
18887;SDS011;9576;47.792;9.628;2023-08-24T11:00:38;27.15;;;6.32;;
18887;SDS011;9576;47.792;9.628;2023-08-24T11:03:41;26.92;;;6.05;;
18887;SDS011;9576;47.792;9.628;2023-08-24T11:06:55;34.22;;;6.70;;
18887;SDS011;9576;47.792;9.628;2023-08-24T11:09:59;24.45;;;6.00;;
18887;SDS011;9576;47.792;9.628;2023-08-24T11:13:12;20.80;;;6.78;;
18887;SDS011;9576;47.792;9.628;2023-08-24T11:19:46;22.02;;;6.57;;
18887;SDS011;9576;47.792;9.628;2023-08-24T11:22:51;28.80;;;7.72;;
18887;SDS011;9576;47.792;9.628;2023-08-24T11:25:57;20.10;;;6.47;;
18887;SDS011;9576;47.792;9.628;2023-08-24T11:29:04;29.10;;;6.53;;
18887;SDS011;9576;47.792;9.628;2023-08-24T11:32:06;26.92;;;6.07;;
18887;SDS011;9576;47.792;9.628;2023-08-24T11:35:10;19.42;;;5.28;;
18887;SDS011;9576;47.792;9.628;2023-08-24T11:38:13;29.52;;;7.75;;
18887;SDS011;9576;47.792;9.628;2023-08-24T11:41:16;30.90;;;6.28;;
18887;SDS011;9576;47.792;9.628;2023-08-24T11:44:19;29.07;;;7.43;;
18887;SDS011;9576;47.792;9.628;2023-08-24T11:47:21;30.02;;;6.18;;
18887;SDS011;9576;47.792;9.628;2023-08-24T11:50:23;28.02;;;6.47;;
18887;SDS011;9576;47.792;9.628;2023-08-24T11:53:27;23.73;;;5.85;;
18887;SDS011;9576;47.792;9.628;2023-08-24T11:56:32;25.77;;;6.93;;
18887;SDS011;9576;47.792;9.628;2023-08-24T11:59:34;24.83;;;6.32;;
18887;SDS011;9576;47.792;9.628;2023-08-24T12:02:36;27.52;;;6.95;;
18887;SDS011;9576;47.792;9.628;2023-08-24T12:05:39;24.50;;;5.88;;
18887;SDS011;9576;47.792;9.628;2023-08-24T12:08:43;28.77;;;5.55;;
18887;SDS011;9576;47.792;9.628;2023-08-24T12:11:46;17.98;;;6.68;;
18887;SDS011;9576;47.792;9.628;2023-08-24T12:14:49;33.78;;;6.43;;
18887;SDS011;9576;47.792;9.628;2023-08-24T12:17:51;24.45;;;6.03;;
18887;SDS011;9576;47.792;9.628;2023-08-24T12:20:53;23.63;;;5.93;;
18887;SDS011;9576;47.792;9.628;2023-08-24T12:23:57;25.05;;;5.25;;
18887;SDS011;9576;47.792;9.628;2023-08-24T12:26:59;33.90;;;8.07;;
18887;SDS011;9576;47.792;9.628;2023-08-24T12:30:04;18.90;;;7.10;;
18887;SDS011;9576;47.792;9.628;2023-08-24T12:33:07;37.27;;;6.40;;
18887;SDS011;9576;47.792;9.628;2023-08-24T12:36:08;28.80;;;5.38;;
18887;SDS011;9576;47.792;9.628;2023-08-24T12:39:12;17.60;;;4.93;;
18887;SDS011;9576;47.792;9.628;2023-08-24T12:45:16;24.13;;;6.00;;
18887;SDS011;9576;47.792;9.628;2023-08-24T12:48:18;20.40;;;6.65;;
18887;SDS011;9576;47.792;9.628;2023-08-24T12:51:20;17.73;;;5.50;;
18887;SDS011;9576;47.792;9.628;2023-08-24T12:54:25;30.40;;;6.00;;
18887;SDS011;9576;47.792;9.628;2023-08-24T12:57:27;38.70;;;5.93;;
18887;SDS011;9576;47.792;9.628;2023-08-24T13:00:29;16.95;;;5.68;;
18887;SDS011;9576;47.792;9.628;2023-08-24T13:03:31;29.27;;;5.88;;
18887;SDS011;9576;47.792;9.628;2023-08-24T13:06:33;38.10;;;6.20;;
18887;SDS011;9576;47.792;9.628;2023-08-24T13:09:37;20.20;;;6.32;;
18887;SDS011;9576;47.792;9.628;2023-08-24T13:12:38;26.27;;;5.67;;
18887;SDS011;9576;47.792;9.628;2023-08-24T13:15:40;30.52;;;5.97;;
18887;SDS011;9576;47.792;9.628;2023-08-24T13:18:42;26.60;;;5.50;;
18887;SDS011;9576;47.792;9.628;2023-08-24T13:21:44;30.25;;;6.43;;
18887;SDS011;9576;47.792;9.628;2023-08-24T13:24:47;24.17;;;5.00;;
18887;SDS011;9576;47.792;9.628;2023-08-24T13:27:49;24.57;;;5.60;;
18887;SDS011;9576;47.792;9.628;2023-08-24T13:30:51;20.85;;;5.40;;
18887;SDS011;9576;47.792;9.628;2023-08-24T13:33:53;28.35;;;4.80;;
18887;SDS011;9576;47.792;9.628;2023-08-24T13:36:55;29.88;;;6.20;;
18887;SDS011;9576;47.792;9.628;2023-08-24T13:39:59;16.75;;;6.13;;
18887;SDS011;9576;47.792;9.628;2023-08-24T13:43:01;26.20;;;5.28;;
18887;SDS011;9576;47.792;9.628;2023-08-24T13:46:04;21.42;;;4.55;;
18887;SDS011;9576;47.792;9.628;2023-08-24T13:49:06;26.67;;;5.93;;
18887;SDS011;9576;47.792;9.628;2023-08-24T13:52:08;13.25;;;5.07;;
18887;SDS011;9576;47.792;9.628;2023-08-24T13:55:12;29.95;;;5.05;;
18887;SDS011;9576;47.792;9.628;2023-08-24T13:58:14;26.17;;;5.83;;
18887;SDS011;9576;47.792;9.628;2023-08-24T14:01:15;31.77;;;7.43;;
18887;SDS011;9576;47.792;9.628;2023-08-24T14:04:17;30.90;;;5.97;;
18887;SDS011;9576;47.792;9.628;2023-08-24T14:07:19;26.67;;;5.50;;
18887;SDS011;9576;47.792;9.628;2023-08-24T14:10:23;19.80;;;5.43;;
18887;SDS011;9576;47.792;9.628;2023-08-24T14:13:25;21.25;;;5.13;;
18887;SDS011;9576;47.792;9.628;2023-08-24T14:16:26;20.90;;;5.82;;
18887;SDS011;9576;47.792;9.628;2023-08-24T14:19:28;16.55;;;5.63;;
18887;SDS011;9576;47.792;9.628;2023-08-24T14:22:30;23.85;;;6.50;;
18887;SDS011;9576;47.792;9.628;2023-08-24T14:25:34;31.00;;;5.93;;
18887;SDS011;9576;47.792;9.628;2023-08-24T14:28:49;29.10;;;6.15;;
18887;SDS011;9576;47.792;9.628;2023-08-24T14:31:53;16.25;;;5.03;;
18887;SDS011;9576;47.792;9.628;2023-08-24T14:34:55;23.00;;;5.35;;
18887;SDS011;9576;47.792;9.628;2023-08-24T14:37:57;17.95;;;5.05;;
18887;SDS011;9576;47.792;9.628;2023-08-24T14:41:01;24.33;;;5.93;;
18887;SDS011;9576;47.792;9.628;2023-08-24T14:44:03;29.80;;;5.35;;
18887;SDS011;9576;47.792;9.628;2023-08-24T14:47:05;20.17;;;5.18;;
18887;SDS011;9576;47.792;9.628;2023-08-24T14:50:07;19.48;;;4.57;;
18887;SDS011;9576;47.792;9.628;2023-08-24T14:53:10;16.13;;;5.30;;
18887;SDS011;9576;47.792;9.628;2023-08-24T14:56:13;19.40;;;5.00;;
18887;SDS011;9576;47.792;9.628;2023-08-24T14:59:15;43.92;;;6.00;;
18887;SDS011;9576;47.792;9.628;2023-08-24T15:02:17;35.03;;;5.00;;
18887;SDS011;9576;47.792;9.628;2023-08-24T15:05:19;23.83;;;5.00;;
18887;SDS011;9576;47.792;9.628;2023-08-24T15:08:21;13.80;;;4.43;;
18887;SDS011;9576;47.792;9.628;2023-08-24T15:11:24;15.57;;;4.75;;
18887;SDS011;9576;47.792;9.628;2023-08-24T15:14:29;20.33;;;4.67;;
18887;SDS011;9576;47.792;9.628;2023-08-24T15:17:32;20.40;;;6.47;;
18887;SDS011;9576;47.792;9.628;2023-08-24T15:20:35;24.83;;;6.20;;
18887;SDS011;9576;47.792;9.628;2023-08-24T15:23:37;18.10;;;5.28;;
18887;SDS011;9576;47.792;9.628;2023-08-24T15:26:40;19.48;;;6.63;;
18887;SDS011;9576;47.792;9.628;2023-08-24T15:29:42;11.13;;;4.57;;
18887;SDS011;9576;47.792;9.628;2023-08-24T15:32:44;35.65;;;5.05;;
18887;SDS011;9576;47.792;9.628;2023-08-24T15:35:45;22.63;;;4.38;;
18887;SDS011;9576;47.792;9.628;2023-08-24T15:38:47;26.15;;;4.60;;
18887;SDS011;9576;47.792;9.628;2023-08-24T15:41:51;15.68;;;5.03;;
18887;SDS011;9576;47.792;9.628;2023-08-24T15:44:53;19.65;;;4.47;;
18887;SDS011;9576;47.792;9.628;2023-08-24T15:47:55;21.77;;;4.45;;
18887;SDS011;9576;47.792;9.628;2023-08-24T15:50:57;21.92;;;5.28;;
18887;SDS011;9576;47.792;9.628;2023-08-24T15:53:59;15.50;;;4.32;;
18887;SDS011;9576;47.792;9.628;2023-08-24T15:57:03;16.80;;;4.40;;
18887;SDS011;9576;47.792;9.628;2023-08-24T16:00:05;31.55;;;5.90;;
18887;SDS011;9576;47.792;9.628;2023-08-24T16:03:10;13.75;;;3.97;;
18887;SDS011;9576;47.792;9.628;2023-08-24T16:06:12;19.42;;;5.00;;
18887;SDS011;9576;47.792;9.628;2023-08-24T16:09:14;20.23;;;4.05;;
18887;SDS011;9576;47.792;9.628;2023-08-24T16:12:17;26.88;;;4.45;;
18887;SDS011;9576;47.792;9.628;2023-08-24T16:15:19;13.30;;;3.90;;
18887;SDS011;9576;47.792;9.628;2023-08-24T16:18:22;12.40;;;4.50;;
18887;SDS011;9576;47.792;9.628;2023-08-24T16:21:26;14.43;;;4.43;;
18887;SDS011;9576;47.792;9.628;2023-08-24T16:24:28;24.00;;;4.70;;
18887;SDS011;9576;47.792;9.628;2023-08-24T16:27:31;20.95;;;4.50;;
18887;SDS011;9576;47.792;9.628;2023-08-24T16:30:34;27.02;;;4.15;;
18887;SDS011;9576;47.792;9.628;2023-08-24T16:33:36;21.70;;;3.88;;
18887;SDS011;9576;47.792;9.628;2023-08-24T16:36:38;24.80;;;5.22;;
18887;SDS011;9576;47.792;9.628;2023-08-24T16:39:41;15.45;;;4.80;;
18887;SDS011;9576;47.792;9.628;2023-08-24T16:42:44;24.08;;;4.28;;
18887;SDS011;9576;47.792;9.628;2023-08-24T16:45:46;25.23;;;5.70;;
18887;SDS011;9576;47.792;9.628;2023-08-24T16:48:48;21.70;;;4.63;;
18887;SDS011;9576;47.792;9.628;2023-08-24T16:51:50;21.75;;;4.15;;
18887;SDS011;9576;47.792;9.628;2023-08-24T16:54:52;14.45;;;4.45;;
18887;SDS011;9576;47.792;9.628;2023-08-24T16:57:55;17.70;;;4.70;;
18887;SDS011;9576;47.792;9.628;2023-08-24T17:01:03;26.48;;;6.05;;
18887;SDS011;9576;47.792;9.628;2023-08-24T17:04:06;25.52;;;4.88;;
18887;SDS011;9576;47.792;9.628;2023-08-24T17:07:08;23.80;;;4.78;;
18887;SDS011;9576;47.792;9.628;2023-08-24T17:10:10;13.73;;;5.13;;
18887;SDS011;9576;47.792;9.628;2023-08-24T17:13:13;17.45;;;4.70;;
18887;SDS011;9576;47.792;9.628;2023-08-24T17:16:15;26.65;;;6.28;;
18887;SDS011;9576;47.792;9.628;2023-08-24T17:19:17;19.13;;;4.80;;
18887;SDS011;9576;47.792;9.628;2023-08-24T17:22:19;30.35;;;5.47;;
18887;SDS011;9576;47.792;9.628;2023-08-24T17:25:21;26.02;;;5.25;;
18887;SDS011;9576;47.792;9.628;2023-08-24T17:28:24;20.40;;;5.30;;
18887;SDS011;9576;47.792;9.628;2023-08-24T17:31:27;24.90;;;6.72;;
18887;SDS011;9576;47.792;9.628;2023-08-24T17:34:29;28.77;;;5.40;;
18887;SDS011;9576;47.792;9.628;2023-08-24T17:37:31;25.98;;;5.88;;
18887;SDS011;9576;47.792;9.628;2023-08-24T17:40:33;16.55;;;5.57;;
18887;SDS011;9576;47.792;9.628;2023-08-24T17:43:36;28.23;;;5.43;;
18887;SDS011;9576;47.792;9.628;2023-08-24T17:46:40;22.92;;;4.90;;
18887;SDS011;9576;47.792;9.628;2023-08-24T17:49:42;13.93;;;5.47;;
18887;SDS011;9576;47.792;9.628;2023-08-24T17:52:44;13.77;;;6.10;;
18887;SDS011;9576;47.792;9.628;2023-08-24T17:55:46;16.65;;;6.32;;
18887;SDS011;9576;47.792;9.628;2023-08-24T17:58:53;15.82;;;5.07;;
18887;SDS011;9576;47.792;9.628;2023-08-24T18:01:55;31.42;;;6.40;;
18887;SDS011;9576;47.792;9.628;2023-08-24T18:04:57;34.17;;;5.63;;
18887;SDS011;9576;47.792;9.628;2023-08-24T18:07:59;21.65;;;5.20;;
18887;SDS011;9576;47.792;9.628;2023-08-24T18:11:01;22.20;;;5.50;;
18887;SDS011;9576;47.792;9.628;2023-08-24T18:14:04;31.58;;;6.40;;
18887;SDS011;9576;47.792;9.628;2023-08-24T18:17:06;25.88;;;5.75;;
18887;SDS011;9576;47.792;9.628;2023-08-24T18:20:09;30.05;;;5.90;;
18887;SDS011;9576;47.792;9.628;2023-08-24T18:23:11;24.83;;;5.60;;
18887;SDS011;9576;47.792;9.628;2023-08-24T18:26:13;31.77;;;5.97;;
18887;SDS011;9576;47.792;9.628;2023-08-24T18:29:16;13.73;;;5.22;;
18887;SDS011;9576;47.792;9.628;2023-08-24T18:32:18;16.65;;;5.32;;
18887;SDS011;9576;47.792;9.628;2023-08-24T18:35:20;18.30;;;6.10;;